Time;durP1;ratioP1;P1;durP2;ratioP2;P2;SDS_P1;SDS_P2;PMS_P1;PMS_P2;Temp;Humidity;BMP_temperature;BMP_pressure;BME280_temperature;BME280_humidity;BME280_pressure;Samples;Min_cycle;Max_cycle;Signal;HPM_P1;HPM_P2
2022/02/27 00:01:12;;;;;;;9.15;3.45;;;3.90;99.90;;;;;;5038014;28;20025;-77
2022/02/27 00:03:38;;;;;;;9.85;3.92;;;3.90;99.90;;;;;;5056000;28;20036;-74
2022/02/27 00:06:05;;;;;;;9.50;4.55;;;4.00;99.90;;;;;;5055827;28;20021;-75
2022/02/27 00:08:30;;;;;;;7.10;3.55;;;3.90;99.90;;;;;;5055730;28;20044;-73
2022/02/27 00:10:56;;;;;;;7.70;3.33;;;3.90;99.90;;;;;;5055761;28;20389;-73
2022/02/27 00:13:22;;;;;;;8.18;3.63;;;3.80;99.90;;;;;;5055598;28;20025;-77
2022/02/27 00:15:48;;;;;;;9.93;3.72;;;3.80;99.90;;;;;;5055930;28;20021;-74
2022/02/27 00:18:13;;;;;;;8.55;3.92;;;3.80;99.90;;;;;;5055583;28;20440;-72
2022/02/27 00:20:40;;;;;;;6.45;3.45;;;3.70;99.90;;;;;;5055895;28;20028;-77
2022/02/27 00:23:06;;;;;;;6.68;3.42;;;3.70;99.90;;;;;;5036623;28;20029;-76
2022/02/27 00:25:32;;;;;;;9.93;3.55;;;3.50;99.90;;;;;;5055372;28;20033;-73
2022/02/27 00:27:57;;;;;;;10.57;4.05;;;3.60;99.90;;;;;;5055313;28;20032;-73
2022/02/27 00:30:23;;;;;;;7.85;3.60;;;3.50;99.90;;;;;;5055368;28;20043;-71
2022/02/27 00:32:49;;;;;;;6.47;3.78;;;3.50;99.90;;;;;;5055362;28;20051;-74
2022/02/27 00:35:14;;;;;;;8.18;3.90;;;3.50;99.90;;;;;;5055256;28;20092;-75
2022/02/27 00:37:40;;;;;;;10.60;4.43;;;3.50;99.90;;;;;;5055295;28;20061;-78
2022/02/27 00:40:06;;;;;;;10.95;4.03;;;3.50;99.90;;;;;;5055236;28;20095;-73
2022/02/27 00:42:32;;;;;;;9.70;3.53;;;3.50;99.90;;;;;;5055168;28;20033;-75
2022/02/27 00:44:58;;;;;;;7.22;4.10;;;3.40;99.90;;;;;;5055663;28;20029;-73
2022/02/27 00:47:24;;;;;;;7.65;4.13;;;3.40;99.90;;;;;;5054918;28;20028;-76
2022/02/27 00:49:49;;;;;;;9.15;3.97;;;3.40;99.90;;;;;;5055068;28;20018;-74
2022/02/27 00:52:19;;;;;;;6.97;3.55;;;3.40;99.90;;;;;;5054926;28;20032;-73
2022/02/27 00:54:44;;;;;;;8.43;3.67;;;3.50;99.90;;;;;;5054819;28;20021;-74
2022/02/27 00:57:10;;;;;;;8.27;3.50;;;3.30;99.90;;;;;;5055091;28;20033;-73
2022/02/27 00:59:36;;;;;;;9.05;3.85;;;3.20;99.90;;;;;;5055110;28;20025;-71
2022/02/27 01:02:02;;;;;;;6.13;3.47;;;3.10;99.90;;;;;;5054753;28;20036;-74
2022/02/27 01:04:27;;;;;;;9.32;4.47;;;2.90;99.90;;;;;;5054489;28;20044;-74
2022/02/27 01:06:53;;;;;;;7.95;3.80;;;2.80;99.90;;;;;;5054546;28;20495;-74
2022/02/27 01:09:18;;;;;;;8.98;3.65;;;2.80;99.90;;;;;;5054590;28;20027;-75
2022/02/27 01:11:44;;;;;;;10.65;3.78;;;2.70;99.90;;;;;;5055084;28;20025;-71
2022/02/27 01:14:10;;;;;;;7.47;3.20;;;2.70;99.90;;;;;;5055067;28;20021;-76
2022/02/27 01:16:35;;;;;;;8.75;4.25;;;2.70;99.90;;;;;;5054684;28;20074;-76
2022/02/27 01:19:01;;;;;;;7.93;4.07;;;2.70;99.90;;;;;;5054953;28;20022;-76
2022/02/27 01:21:27;;;;;;;9.20;4.03;;;2.70;99.90;;;;;;5054333;28;20056;-73
2022/02/27 01:23:52;;;;;;;6.00;3.75;;;2.70;99.90;;;;;;5054568;28;20055;-74
2022/02/27 01:26:18;;;;;;;10.73;3.72;;;2.50;99.90;;;;;;5054528;28;20029;-77
2022/02/27 01:28:44;;;;;;;9.45;4.05;;;2.40;99.90;;;;;;5054135;28;20025;-79
2022/02/27 01:31:10;;;;;;;6.30;3.72;;;2.60;99.90;;;;;;5054125;28;20021;-74
2022/02/27 01:33:36;;;;;;;7.75;4.03;;;2.70;99.90;;;;;;5054410;28;20028;-74
2022/02/27 01:36:04;;;;;;;8.00;3.67;;;2.60;99.90;;;;;;5053883;28;20028;-72
2022/02/27 01:38:30;;;;;;;9.05;3.67;;;2.70;99.90;;;;;;5053970;28;20020;-73
2022/02/27 01:40:55;;;;;;;8.82;3.97;;;2.70;99.90;;;;;;5054055;28;20031;-75
2022/02/27 01:43:21;;;;;;;8.30;3.83;;;2.70;99.90;;;;;;5036094;28;20115;-75
2022/02/27 01:45:48;;;;;;;10.18;3.90;;;2.70;99.90;;;;;;5054208;28;20025;-76
2022/02/27 01:48:13;;;;;;;9.98;4.43;;;2.60;99.90;;;;;;5054324;28;20043;-73
2022/02/27 01:50:39;;;;;;;10.05;3.60;;;2.40;99.90;;;;;;5054145;28;20025;-76
2022/02/27 01:53:05;;;;;;;9.65;3.70;;;2.50;99.90;;;;;;5053814;28;20021;-73
2022/02/27 01:55:30;;;;;;;7.90;3.53;;;2.60;99.90;;;;;;5053660;28;20113;-74
2022/02/27 01:57:56;;;;;;;9.95;3.85;;;2.50;99.90;;;;;;5053722;28;20057;-79
2022/02/27 02:00:22;;;;;;;6.88;3.70;;;2.60;99.90;;;;;;5053637;28;20052;-73
2022/02/27 02:02:48;;;;;;;7.40;3.58;;;2.40;99.90;;;;;;5053668;28;20032;-77
2022/02/27 02:05:15;;;;;;;9.50;4.20;;;2.50;99.90;;;;;;5053304;28;20044;-74
2022/02/27 02:07:41;;;;;;;8.48;4.00;;;2.60;99.90;;;;;;5053505;28;20390;-73
2022/02/27 02:10:07;;;;;;;8.10;4.00;;;2.40;99.90;;;;;;5053496;28;20024;-76
2022/02/27 02:12:33;;;;;;;7.25;3.50;;;2.30;99.90;;;;;;5053717;28;20021;-75
2022/02/27 02:14:59;;;;;;;7.85;3.40;;;2.40;99.90;;;;;;5053452;28;20028;-75
2022/02/27 02:17:25;;;;;;;7.20;3.97;;;2.40;99.90;;;;;;5053936;28;20025;-76
2022/02/27 02:19:52;;;;;;;6.30;3.47;;;2.30;99.90;;;;;;5053686;28;20025;-74
2022/02/27 02:22:18;;;;;;;8.63;3.83;;;2.20;99.90;;;;;;5053666;28;20477;-75
2022/02/27 02:24:44;;;;;;;7.80;3.90;;;2.20;99.90;;;;;;5053287;28;20028;-74
2022/02/27 02:27:10;;;;;;;10.18;4.00;;;2.40;99.90;;;;;;5053220;28;20079;-78
2022/02/27 02:29:36;;;;;;;9.27;3.60;;;2.40;99.90;;;;;;5035429;28;20083;-75
2022/02/27 02:32:01;;;;;;;8.52;3.25;;;2.50;99.90;;;;;;5053677;28;20057;-75
2022/02/27 02:34:27;;;;;;;8.75;3.63;;;2.50;99.90;;;;;;5053473;28;20053;-77
2022/02/27 02:36:54;;;;;;;7.35;3.47;;;2.40;99.90;;;;;;5053223;28;20028;-74
2022/02/27 02:39:21;;;;;;;7.28;3.97;;;2.40;99.90;;;;;;5053398;28;20025;-75
2022/02/27 02:41:47;;;;;;;14.63;4.30;;;2.50;99.90;;;;;;5053113;28;20033;-76
2022/02/27 02:44:14;;;;;;;8.10;3.90;;;2.60;99.90;;;;;;5053390;28;20043;-75
2022/02/27 02:46:41;;;;;;;7.07;3.35;;;2.60;99.90;;;;;;5035965;28;20037;-74
2022/02/27 02:49:08;;;;;;;11.43;4.35;;;2.60;99.90;;;;;;5057243;28;20025;-76
2022/02/27 02:51:34;;;;;;;8.50;3.60;;;2.50;99.90;;;;;;5057193;28;20025;-74
2022/02/27 02:54:00;;;;;;;8.10;3.75;;;2.50;99.90;;;;;;5057073;28;20024;-77
2022/02/27 02:56:26;;;;;;;9.25;4.13;;;2.50;99.90;;;;;;5057355;28;20033;-72
2022/02/27 02:58:51;;;;;;;9.80;3.80;;;2.50;99.90;;;;;;5057409;28;20362;-73
2022/02/27 03:01:19;;;;;;;8.65;3.92;;;2.50;99.90;;;;;;5057441;28;20488;-73
2022/02/27 03:03:46;;;;;;;8.00;3.90;;;2.30;99.90;;;;;;5057028;28;20029;-73
2022/02/27 03:06:13;;;;;;;7.82;4.10;;;2.30;99.90;;;;;;5056998;28;20029;-72
2022/02/27 03:08:43;;;;;;;8.00;3.45;;;2.50;99.90;;;;;;5056851;28;20111;-76
2022/02/27 03:11:08;;;;;;;9.80;3.80;;;2.50;99.90;;;;;;5057171;28;20072;-78
2022/02/27 03:13:35;;;;;;;7.57;4.32;;;2.40;99.90;;;;;;5056845;28;20032;-74
2022/02/27 03:16:01;;;;;;;7.57;3.47;;;2.40;99.90;;;;;;5056724;28;20017;-73
2022/02/27 03:18:27;;;;;;;9.95;3.67;;;2.50;99.90;;;;;;5056697;28;20563;-73
2022/02/27 03:20:53;;;;;;;8.15;3.83;;;2.30;99.90;;;;;;5056654;28;20029;-73
2022/02/27 03:23:18;;;;;;;7.97;4.00;;;2.20;99.90;;;;;;5056899;28;20044;-73
2022/02/27 03:25:44;;;;;;;9.60;3.88;;;2.00;99.90;;;;;;5056863;28;20398;-74
2022/02/27 03:28:10;;;;;;;8.27;3.67;;;1.90;99.90;;;;;;5056539;28;20028;-74
2022/02/27 03:30:38;;;;;;;7.70;3.67;;;1.90;99.90;;;;;;5056474;28;20032;-79
2022/02/27 03:33:07;;;;;;;8.52;3.50;;;2.00;99.90;;;;;;5056436;28;20021;-76
2022/02/27 03:35:34;;;;;;;8.95;3.95;;;2.00;99.90;;;;;;5056363;28;20154;-75
2022/02/27 03:38:00;;;;;;;11.10;4.30;;;2.00;99.90;;;;;;5056317;28;20032;-74
2022/02/27 03:40:26;;;;;;;10.65;4.28;;;1.90;99.90;;;;;;5056443;28;20490;-74
2022/02/27 03:42:52;;;;;;;9.77;3.95;;;1.90;99.90;;;;;;5056255;28;20040;-75
2022/02/27 03:45:18;;;;;;;7.38;4.18;;;1.90;99.90;;;;;;5056170;28;20032;-77
2022/02/27 03:47:44;;;;;;;8.75;3.83;;;1.90;99.90;;;;;;5056116;28;20091;-74
2022/02/27 03:50:12;;;;;;;8.63;4.25;;;1.90;99.90;;;;;;5056202;28;20082;-72
2022/02/27 03:52:38;;;;;;;8.32;3.70;;;1.90;99.90;;;;;;5056373;28;20027;-75
2022/02/27 03:55:07;;;;;;;6.78;3.45;;;1.90;99.90;;;;;;5056135;28;20025;-74
2022/02/27 03:57:32;;;;;;;8.20;4.28;;;2.10;99.90;;;;;;5055887;28;20500;-76
2022/02/27 03:59:58;;;;;;;7.55;4.07;;;2.00;99.90;;;;;;5056047;28;20037;-74
2022/02/27 04:02:24;;;;;;;7.25;3.78;;;2.00;99.90;;;;;;5056152;28;20064;-75
2022/02/27 04:04:49;;;;;;;8.07;3.85;;;1.80;99.90;;;;;;5055835;28;20476;-71
2022/02/27 04:07:15;;;;;;;9.52;4.80;;;1.80;99.90;;;;;;5055779;28;20389;-74
2022/02/27 04:09:42;;;;;;;10.50;4.00;;;1.80;99.90;;;;;;5055737;28;20492;-75
2022/02/27 04:12:08;;;;;;;7.45;3.90;;;1.90;99.90;;;;;;5055703;28;20381;-73
2022/02/27 04:14:34;;;;;;;8.63;3.60;;;1.90;99.90;;;;;;5055891;28;20022;-70
2022/02/27 04:16:59;;;;;;;8.80;4.03;;;1.90;99.90;;;;;;5055598;28;20040;-73
2022/02/27 04:19:25;;;;;;;10.60;4.05;;;1.90;99.90;;;;;;5055583;28;20371;-73
2022/02/27 04:21:51;;;;;;;9.88;4.25;;;1.80;99.90;;;;;;5055820;28;20024;-74
2022/02/27 04:24:16;;;;;;;8.90;4.18;;;1.70;99.90;;;;;;5055814;28;20029;-77
2022/02/27 04:26:43;;;;;;;7.60;3.83;;;1.90;99.90;;;;;;5055324;28;20017;-77
2022/02/27 04:29:09;;;;;;;8.85;4.20;;;1.70;99.90;;;;;;5055432;28;20502;-75
2022/02/27 04:31:35;;;;;;;9.82;4.05;;;1.70;99.90;;;;;;5055357;28;20021;-73
2022/02/27 04:34:01;;;;;;;9.32;4.18;;;1.80;99.90;;;;;;5055314;28;20103;-76
2022/02/27 04:36:26;;;;;;;7.88;3.83;;;1.80;99.90;;;;;;5055206;28;20021;-74
2022/02/27 04:38:52;;;;;;;11.45;3.85;;;1.80;99.90;;;;;;5055758;28;20060;-76
2022/02/27 04:41:22;;;;;;;11.30;4.63;;;1.80;99.90;;;;;;5055252;28;20025;-76
2022/02/27 04:43:48;;;;;;;8.27;4.32;;;1.80;99.90;;;;;;5055279;28;20028;-70
2022/02/27 04:46:15;;;;;;;10.88;4.20;;;1.70;99.90;;;;;;5055136;28;20035;-75
2022/02/27 04:48:41;;;;;;;8.00;4.05;;;1.70;99.90;;;;;;5054882;28;20025;-74
2022/02/27 04:51:07;;;;;;;8.10;4.05;;;1.80;99.90;;;;;;5055274;28;20025;-75
2022/02/27 04:53:34;;;;;;;12.05;4.22;;;1.70;99.90;;;;;;5054969;28;20049;-75
2022/02/27 04:56:00;;;;;;;7.18;3.85;;;1.80;99.90;;;;;;5054861;28;20025;-75
2022/02/27 04:58:26;;;;;;;11.48;4.35;;;1.80;99.90;;;;;;5055392;28;20170;-78
2022/02/27 05:00:51;;;;;;;9.55;3.75;;;1.80;99.90;;;;;;5054804;28;20043;-74
2022/02/27 05:03:17;;;;;;;7.07;3.72;;;2.00;99.90;;;;;;5054761;28;20021;-77
2022/02/27 05:05:43;;;;;;;8.15;4.10;;;2.00;99.90;;;;;;5054333;28;20051;-78
2022/02/27 05:08:08;;;;;;;8.70;3.80;;;1.90;99.90;;;;;;5055188;28;20040;-76
2022/02/27 05:10:36;;;;;;;9.20;4.00;;;1.90;99.90;;;;;;5054096;28;20493;-73
2022/02/27 05:13:02;;;;;;;7.78;3.80;;;1.80;99.90;;;;;;5054552;28;20025;-74
2022/02/27 05:15:27;;;;;;;7.55;4.03;;;1.80;99.90;;;;;;5054501;28;20503;-76
2022/02/27 05:17:54;;;;;;;7.35;4.10;;;1.90;99.90;;;;;;5054439;28;20033;-73
2022/02/27 05:20:20;;;;;;;9.50;4.70;;;1.70;99.90;;;;;;5036525;28;20553;-73
2022/02/27 05:22:48;;;;;;;8.27;3.92;;;1.60;99.90;;;;;;5054357;28;20021;-78
2022/02/27 05:25:18;;;;;;;8.43;3.72;;;1.50;99.90;;;;;;5054304;28;20053;-74
2022/02/27 05:27:45;;;;;;;9.93;3.67;;;1.50;99.90;;;;;;5054209;28;20385;-76
2022/02/27 05:30:12;;;;;;;11.30;4.30;;;1.50;99.90;;;;;;5054177;28;20363;-75
2022/02/27 05:32:38;;;;;;;9.32;3.85;;;1.50;99.90;;;;;;5054272;28;20446;-74
2022/02/27 05:35:04;;;;;;;8.73;3.90;;;1.40;99.90;;;;;;5054120;28;20049;-74
2022/02/27 05:37:30;;;;;;;9.38;4.22;;;1.40;99.90;;;;;;5054472;28;20025;-75
2022/02/27 05:39:55;;;;;;;7.57;4.28;;;1.30;99.90;;;;;;5054059;28;20029;-76
2022/02/27 05:42:21;;;;;;;10.73;5.25;;;1.30;99.90;;;;;;5054054;28;20071;-78
2022/02/27 05:44:47;;;;;;;11.18;4.53;;;1.30;99.90;;;;;;5053968;28;20029;-74
2022/02/27 05:47:12;;;;;;;9.55;4.57;;;1.50;99.90;;;;;;5053787;28;20025;-72
2022/02/27 05:49:38;;;;;;;7.75;3.85;;;1.50;99.90;;;;;;5053921;28;20102;-75
2022/02/27 05:52:04;;;;;;;8.15;4.10;;;1.60;99.90;;;;;;5054166;28;20473;-74
2022/02/27 05:54:29;;;;;;;9.18;4.15;;;1.50;99.90;;;;;;5053866;28;20547;-77
2022/02/27 05:56:55;;;;;;;7.97;4.55;;;1.50;99.90;;;;;;5053997;28;20028;-75
2022/02/27 05:59:21;;;;;;;8.88;4.30;;;1.50;99.90;;;;;;5053784;28;20025;-74
2022/02/27 06:01:48;;;;;;;8.48;3.92;;;1.50;99.90;;;;;;5053616;28;20036;-73
2022/02/27 06:04:15;;;;;;;11.80;5.05;;;1.60;99.90;;;;;;5053638;28;20441;-76
2022/02/27 06:06:41;;;;;;;8.13;4.10;;;1.60;99.90;;;;;;5035377;28;20021;-74
2022/02/27 06:09:06;;;;;;;8.45;4.25;;;1.60;99.90;;;;;;5053560;28;20025;-75
2022/02/27 06:11:32;;;;;;;10.93;4.43;;;1.50;99.90;;;;;;5053511;28;20067;-75
2022/02/27 06:13:57;;;;;;;8.88;4.57;;;1.40;99.90;;;;;;5053552;28;20024;-77
2022/02/27 06:16:23;;;;;;;10.38;5.55;;;1.40;99.90;;;;;;5053847;28;20610;-75
2022/02/27 06:18:49;;;;;;;10.38;4.28;;;1.30;99.90;;;;;;5054402;28;20028;-78
2022/02/27 06:21:14;;;;;;;9.93;4.70;;;1.30;99.90;;;;;;5053721;28;20025;-75
2022/02/27 06:23:40;;;;;;;9.63;4.40;;;1.40;99.90;;;;;;5054179;28;20151;-77
2022/02/27 06:26:06;;;;;;;10.45;4.90;;;1.50;99.90;;;;;;5053822;28;20102;-74
2022/02/27 06:28:31;;;;;;;12.32;4.53;;;1.50;99.90;;;;;;5054021;28;20495;-75
2022/02/27 06:30:57;;;;;;;8.63;3.88;;;1.50;99.90;;;;;;5053643;28;20028;-76
2022/02/27 06:33:22;;;;;;;9.55;4.18;;;1.40;99.90;;;;;;5053655;28;20029;-73
2022/02/27 06:35:48;;;;;;;8.68;4.65;;;1.40;99.90;;;;;;5053633;28;20099;-78
2022/02/27 06:38:14;;;;;;;9.40;4.63;;;1.40;99.90;;;;;;5053794;28;20028;-77
2022/02/27 06:40:39;;;;;;;10.18;4.55;;;1.50;99.90;;;;;;5053495;28;20476;-72
2022/02/27 06:43:06;;;;;;;7.80;4.15;;;1.40;99.90;;;;;;5053503;28;20033;-75
2022/02/27 06:45:32;;;;;;;8.93;4.30;;;1.30;99.90;;;;;;5035476;28;20030;-75
2022/02/27 06:47:58;;;;;;;9.98;4.57;;;1.40;99.90;;;;;;5053354;28;20025;-73
2022/02/27 06:50:24;;;;;;;9.27;4.18;;;1.40;99.90;;;;;;5053579;28;20025;-75
2022/02/27 06:52:50;;;;;;;9.90;4.30;;;1.50;99.90;;;;;;5053243;28;20075;-75
2022/02/27 06:55:16;;;;;;;9.20;4.90;;;1.40;99.90;;;;;;5035184;28;20393;-76
2022/02/27 06:57:46;;;;;;;7.60;3.90;;;1.50;99.90;;;;;;5053133;28;20027;-73
2022/02/27 07:00:13;;;;;;;11.35;5.35;;;1.50;99.90;;;;;;5053150;28;20025;-75
2022/02/27 07:02:39;;;;;;;9.15;4.75;;;1.50;99.90;;;;;;5053317;28;20397;-79
2022/02/27 07:05:06;;;;;;;9.07;4.85;;;1.50;99.90;;;;;;5052983;28;20055;-77
2022/02/27 07:07:31;;;;;;;8.60;4.07;;;1.50;99.90;;;;;;5034941;28;20032;-74
2022/02/27 07:10:00;;;;;;;8.15;4.35;;;1.60;99.90;;;;;;5053228;28;20477;-72
2022/02/27 07:12:30;;;;;;;12.93;5.90;;;1.70;99.90;;;;;;5034996;28;20428;-75
2022/02/27 07:14:57;;;;;;;8.80;4.60;;;1.60;99.90;;;;;;5052984;28;20021;-75
2022/02/27 07:17:23;;;;;;;9.10;4.38;;;1.80;99.90;;;;;;5035002;28;20069;-74
2022/02/27 07:19:48;;;;;;;9.80;4.88;;;1.90;99.90;;;;;;5052834;28;20492;-77
2022/02/27 07:22:14;;;;;;;11.57;4.78;;;2.00;99.90;;;;;;5052915;28;20029;-74
2022/02/27 07:24:40;;;;;;;12.98;6.07;;;2.10;99.90;;;;;;5053042;28;20025;-76
2022/02/27 07:27:05;;;;;;;9.75;5.22;;;2.30;99.90;;;;;;5053066;28;20082;-76
2022/02/27 07:29:32;;;;;;;11.60;5.45;;;2.50;99.90;;;;;;5052944;28;20017;-75
2022/02/27 07:31:58;;;;;;;11.40;5.82;;;2.60;99.90;;;;;;5052969;28;20477;-75
2022/02/27 07:34:23;;;;;;;12.93;6.90;;;2.80;99.90;;;;;;5056038;28;20096;-73
2022/02/27 07:36:51;;;;;;;12.10;6.07;;;2.90;99.90;;;;;;5038513;28;20025;-74
2022/02/27 07:39:19;;;;;;;10.15;5.10;;;3.10;99.90;;;;;;5038417;28;20501;-73
2022/02/27 07:41:45;;;;;;;12.82;5.75;;;3.20;99.90;;;;;;5056195;28;20096;-75
2022/02/27 07:44:10;;;;;;;10.02;4.47;;;3.30;99.90;;;;;;5056251;28;20071;-74
2022/02/27 07:46:36;;;;;;;13.13;7.25;;;3.50;99.90;;;;;;5056307;28;20032;-74
2022/02/27 07:49:02;;;;;;;10.95;5.90;;;3.60;99.90;;;;;;5055857;28;20025;-73
2022/02/27 07:51:28;;;;;;;10.15;5.80;;;3.70;99.90;;;;;;5056093;28;20528;-76
2022/02/27 07:53:54;;;;;;;8.63;4.97;;;;;;;;;;5056104;28;20025;-75
2022/02/27 07:56:20;;;;;;;9.50;4.95;;;;;;;;;;5055959;28;20064;-76
2022/02/27 07:58:46;;;;;;;11.95;5.63;;;;;;;;;;5055938;28;20029;-73
2022/02/27 08:01:12;;;;;;;11.40;5.75;;;;;;;;;;5055932;28;20032;-79
2022/02/27 08:03:38;;;;;;;11.50;5.30;;;;;;;;;;5055724;28;20036;-73
2022/02/27 08:06:04;;;;;;;9.77;5.03;;;3.70;99.90;;;;;;5055834;28;20389;-78
2022/02/27 08:08:30;;;;;;;11.45;5.38;;;4.30;99.90;;;;;;5055710;28;20054;-74
2022/02/27 08:10:55;;;;;;;22.55;10.50;;;4.40;99.90;;;;;;5055789;28;20025;-73
2022/02/27 08:13:21;;;;;;;13.57;6.38;;;4.50;99.90;;;;;;5056025;28;20023;-77
2022/02/27 08:15:47;;;;;;;8.82;5.13;;;;;;;;;;5055678;28;20021;-74
2022/02/27 08:18:13;;;;;;;11.38;5.03;;;;;;;;;;5055640;28;20385;-73
2022/02/27 08:20:40;;;;;;;26.33;13.00;;;;;;;;;;5055748;28;20535;-75
2022/02/27 08:23:06;;;;;;;12.95;6.95;;;;;;;;;;5037509;28;20074;-75
2022/02/27 08:25:32;;;;;;;17.23;8.32;;;;;;;;;;5055441;28;20492;-73
2022/02/27 08:27:58;;;;;;;12.32;6.80;;;;;;;;;;5055415;28;20057;-74
2022/02/27 08:30:24;;;;;;;19.83;8.80;;;;;;;;;;5055912;28;20063;-77
2022/02/27 08:32:50;;;;;;;16.92;7.82;;;;;;;;;;5055967;28;20049;-71
2022/02/27 08:35:17;;;;;;;15.48;9.18;;;;;;;;;;5055580;28;20025;-74
2022/02/27 08:37:43;;;;;;;19.05;9.45;;;;;;;;;;5056163;28;20104;-75
2022/02/27 08:40:09;;;;;;;42.13;24.63;;;4.60;99.90;;;;;;5055689;28;20033;-73
2022/02/27 08:42:35;;;;;;;14.38;7.70;;;6.60;99.90;;;;;;5055704;28;20036;-75
2022/02/27 08:45:01;;;;;;;11.70;5.75;;;7.70;99.90;;;;;;5054543;28;20029;-77
2022/02/27 08:47:26;;;;;;;10.20;4.60;;;12.00;99.90;;;;;;5055301;28;20025;-76
2022/02/27 08:49:52;;;;;;;10.48;5.63;;;15.30;97.70;;;;;;5055755;28;20056;-72
2022/02/27 08:52:18;;;;;;;10.98;5.68;;;17.40;84.80;;;;;;5055423;28;20428;-74
2022/02/27 08:54:46;;;;;;;8.07;4.38;;;18.80;72.10;;;;;;5055129;28;20425;-74
2022/02/27 08:57:12;;;;;;;6.82;3.90;;;19.60;64.40;;;;;;5055866;28;20036;-76
2022/02/27 08:59:38;;;;;;;10.32;5.82;;;20.70;58.80;;;;;;5055336;28;20428;-73
2022/02/27 09:02:04;;;;;;;12.18;9.23;;;21.40;55.30;;;;;;5037457;28;20055;-72
2022/02/27 09:04:29;;;;;;;8.60;4.63;;;21.70;53.80;;;;;;5055136;28;20140;-74
2022/02/27 09:06:55;;;;;;;6.55;4.65;;;22.20;51.10;;;;;;5055131;28;20529;-75
2022/02/27 09:09:21;;;;;;;8.63;4.05;;;22.50;50.40;;;;;;5055065;28;20047;-74
2022/02/27 09:11:46;;;;;;;9.52;4.50;;;23.00;48.00;;;;;;5055315;28;20063;-74
2022/02/27 09:14:12;;;;;;;8.82;4.28;;;23.30;46.60;;;;;;5055560;28;20029;-70
2022/02/27 09:16:38;;;;;;;8.93;4.55;;;23.50;46.00;;;;;;5055178;28;20077;-76
2022/02/27 09:19:03;;;;;;;7.50;4.05;;;23.90;45.30;;;;;;5054891;28;20074;-74
2022/02/27 09:21:29;;;;;;;5.57;3.97;;;24.30;44.90;;;;;;5054720;28;20389;-76
2022/02/27 09:23:55;;;;;;;16.88;5.45;;;24.30;44.60;;;;;;5054816;28;20051;-75
2022/02/27 09:26:24;;;;;;;10.05;5.47;;;25.10;44.10;;;;;;5054714;28;20484;-78
2022/02/27 09:28:50;;;;;;;28.60;16.13;;;25.80;42.90;;;;;;5054560;28;20029;-78
2022/02/27 09:31:16;;;;;;;7.38;4.07;;;25.90;42.10;;;;;;5054485;28;20259;-74
2022/02/27 09:33:42;;;;;;;6.22;3.90;;;25.40;41.40;;;;;;5054485;28;20075;-75
2022/02/27 09:36:11;;;;;;;9.13;3.92;;;25.40;41.70;;;;;;5054950;28;20466;-74
2022/02/27 09:38:37;;;;;;;8.90;3.97;;;26.10;41.20;;;;;;5054922;28;20024;-74
2022/02/27 09:41:04;;;;;;;6.43;3.70;;;25.80;40.40;;;;;;5054242;28;20036;-72
2022/02/27 09:43:30;;;;;;;6.88;4.32;;;25.90;40.70;;;;;;5054567;28;20029;-73
2022/02/27 09:45:56;;;;;;;8.80;4.28;;;26.20;40.50;;;;;;5054171;28;20021;-75
2022/02/27 09:48:22;;;;;;;6.15;3.42;;;26.20;40.00;;;;;;5054060;28;20028;-77
2022/02/27 09:50:49;;;;;;;7.13;3.30;;;26.40;40.10;;;;;;5054088;28;20021;-71
2022/02/27 09:53:15;;;;;;;7.85;4.22;;;26.90;39.50;;;;;;5054567;28;20045;-73
2022/02/27 09:55:41;;;;;;;6.53;4.38;;;26.90;39.00;;;;;;5053809;28;20036;-77
2022/02/27 09:58:07;;;;;;;7.68;4.00;;;26.80;38.80;;;;;;5053983;28;20390;-74
2022/02/27 10:00:33;;;;;;;7.75;4.68;;;26.50;39.40;;;;;;5053853;28;20032;-71
2022/02/27 10:03:11;;;;;;;6.85;3.63;;;26.90;39.10;;;;;;5054119;28;20167;-77
2022/02/27 10:05:40;;;;;;;6.38;3.33;;;26.50;38.90;;;;;;5053533;28;20138;-71
2022/02/27 10:08:07;;;;;;;9.67;3.37;;;26.40;38.70;;;;;;5053637;28;20033;-74
2022/02/27 10:10:33;;;;;;;9.75;3.95;;;26.10;39.50;;;;;;5053934;28;20024;-76
2022/02/27 10:13:00;;;;;;;5.97;3.60;;;26.10;39.90;;;;;;5035691;28;20581;-74
2022/02/27 10:15:27;;;;;;;8.30;4.00;;;26.40;39.10;;;;;;5053751;28;20017;-74
2022/02/27 10:17:53;;;;;;;9.32;3.65;;;26.80;39.00;;;;;;5053850;28;20056;-74
2022/02/27 10:20:24;;;;;;;7.18;3.47;;;27.70;38.40;;;;;;5053555;28;20107;-73
2022/02/27 10:22:54;;;;;;;7.57;3.70;;;26.10;39.10;;;;;;5054126;28;20025;-75
2022/02/27 10:25:29;;;;;;;7.63;3.80;;;25.40;40.00;;;;;;5053562;28;20033;-76
2022/02/27 10:27:57;;;;;;;6.40;3.35;;;25.80;39.80;;;;;;5053520;28;20056;-75
2022/02/27 10:30:30;;;;;;;7.95;3.92;;;26.80;40.00;;;;;;5053477;28;20111;-76
2022/02/27 10:32:57;;;;;;;6.25;3.20;;;;;;;;;;5053769;28;20551;-76
2022/02/27 10:35:43;;;;;;;6.05;3.15;;;;;;;;;;5053358;28;20043;-76
2022/02/27 10:38:28;;;;;;;8.85;4.50;;;;;;;;;;5053588;28;20029;-75
2022/02/27 10:40:54;;;;;;;9.20;4.25;;;;;;;;;;5053516;28;20029;-76
2022/02/27 10:43:20;;;;;;;7.90;3.35;;;;;;;;;;5054367;28;20082;-73
2022/02/27 10:46:01;;;;;;;9.93;3.70;;;;;;;;;;5054398;28;20032;-75
2022/02/27 10:48:28;;;;;;;9.75;4.63;;;;;;;;;;5054329;28;20033;-73
2022/02/27 10:51:02;;;;;;;6.82;3.50;;;;;;;;;;5053849;28;20091;-75
2022/02/27 10:53:34;;;;;;;20.00;12.88;;;;;;;;;;5053967;28;20040;-77
2022/02/27 10:56:00;;;;;;;8.73;3.72;;;;;;;;;;5054035;28;20026;-77
2022/02/27 10:58:35;;;;;;;9.45;4.78;;;;;;;;;;5053731;28;20032;-76
2022/02/27 11:01:06;;;;;;;8.95;4.70;;;;;;;;;;5053964;28;20021;-77
2022/02/27 11:03:35;;;;;;;12.70;4.55;;;;;;;;;;5053584;28;20087;-72
2022/02/27 11:06:02;;;;;;;11.57;5.47;;;;;;;;;;5053507;28;20095;-77
2022/02/27 11:08:28;;;;;;;10.13;4.07;;;;;;;;;;5055899;28;20029;-76
2022/02/27 11:10:54;;;;;;;9.90;4.10;;;;;;;;;;5058118;28;20025;-75
2022/02/27 11:13:20;;;;;;;6.70;3.20;;;;;;;;;;5057499;28;20032;-76
2022/02/27 11:15:46;;;;;;;8.35;3.70;;;;;;;;;;5057579;28;20489;-72
2022/02/27 11:18:12;;;;;;;8.40;4.20;;;;;;;;;;5057193;28;20056;-75
2022/02/27 11:20:40;;;;;;;8.82;3.75;;;;;;;;;;5057367;28;20032;-76
2022/02/27 11:23:06;;;;;;;11.73;4.10;;;;;;;;;;5057210;28;20081;-75
2022/02/27 11:25:32;;;;;;;7.50;3.97;;;;;;;;;;5057354;28;20036;-78
2022/02/27 11:28:11;;;;;;;6.55;3.40;;;;;;;;;;5056806;28;20036;-78
2022/02/27 11:30:38;;;;;;;7.75;4.07;;;;;;;;;;5057302;28;20070;-77
2022/02/27 11:33:15;;;;;;;8.45;3.55;;;;;;;;;;5057195;28;20021;-74
2022/02/27 11:35:41;;;;;;;8.93;3.75;;;;;;;;;;5057398;28;20029;-74
2022/02/27 11:38:08;;;;;;;10.02;3.85;;;;;;;;;;5056877;28;20029;-77
2022/02/27 11:40:41;;;;;;;10.23;4.40;;;;;;;;;;5056699;28;20394;-76
2022/02/27 11:43:07;;;;;;;10.60;3.95;;;;;;;;;;5056796;28;20033;-74
2022/02/27 11:45:36;;;;;;;11.68;4.57;;;;;;;;;;5056958;28;20032;-74
2022/02/27 11:48:03;;;;;;;8.32;4.00;;;;;;;;;;5056625;28;20055;-73
2022/02/27 11:50:33;;;;;;;9.02;4.00;;;;;;;;;;5056377;28;20024;-77
2022/02/27 11:52:59;;;;;;;;;;;;;;;;;;5056982;28;20099;-75
2022/02/27 11:55:42;;;;;;;11.70;4.25;;;;;;;;;;5056235;28;19943;-76
2022/02/27 11:58:17;;;;;;;8.90;3.75;;;;;;;;;;5056227;28;20100;-74
2022/02/27 12:00:43;;;;;;;11.10;3.55;;;;;;;;;;5056517;28;20477;-73
2022/02/27 12:03:28;;;;;;;7.90;3.83;;;;;;;;;;5056040;28;20189;-77
2022/02/27 12:05:55;;;;;;;9.88;4.10;;;;;;;;;;5055791;28;20475;-76
2022/02/27 12:08:38;;;;;;;12.00;4.25;;;;;;;;;;5055784;28;20094;-74
2022/02/27 12:11:04;;;;;;;7.20;3.42;;;;;;;;;;5056194;28;20045;-76
2022/02/27 12:13:31;;;;;;;8.07;3.58;;;;;;;;;;5037924;28;20458;-71
2022/02/27 12:16:06;;;;;;;8.48;4.10;;;;;;;;;;5055909;28;20029;-72
2022/02/27 12:18:45;;;;;;;10.30;4.20;;;;;;;;;;5055839;28;20028;-75
2022/02/27 12:21:12;;;;;;;12.47;4.60;;;;;;;;;;5055443;28;20082;-72
2022/02/27 12:23:38;;;;;;;8.65;4.35;;;;;;;;;;5056135;28;20113;-75
2022/02/27 12:26:09;;;;;;;9.43;5.18;;;;;;;;;;5055508;28;20017;-76
2022/02/27 12:28:34;;;;;;;;;;;;;;;;;;5056219;28;20033;-75
2022/02/27 12:31:01;;;;;;;11.07;4.38;;;;;;;;;;5055915;28;20046;-76
2022/02/27 12:33:30;;;;;;;9.45;4.45;;;;;;;;;;5037603;28;20025;-76
2022/02/27 12:36:00;;;;;;;9.68;4.40;;;;;;;;;;5055376;28;20480;-77
2022/02/27 12:38:26;;;;;;;11.75;4.10;;;;;;;;;;5055627;28;20384;-78
2022/02/27 12:40:59;;;;;;;17.52;4.10;;;;;;;;;;5055344;28;20167;-76
2022/02/27 12:43:25;;;;;;;9.75;4.78;;;;;;;;;;5055501;28;20486;-73
2022/02/27 12:45:51;;;;;;;12.10;4.50;;;;;;;;;;5055175;28;20028;-73
2022/02/27 12:48:22;;;;;;;12.15;4.32;;;;;;;;;;5055406;28;20083;-75
2022/02/27 12:50:50;;;;;;;8.23;4.00;;;;;;;;;;5055163;28;20104;-78
2022/02/27 12:53:18;;;;;;;10.77;5.15;;;;;;;;;;5055097;28;20435;-78
2022/02/27 12:55:44;;;;;;;9.00;4.95;;;;;;;;;;5036996;28;20028;-74
2022/02/27 12:58:11;;;;;;;13.30;5.72;;;;;;;;;;5055777;28;20039;-75
2022/02/27 13:00:41;;;;;;;16.13;6.40;;;;;;;;;;5055460;28;20028;-75
2022/02/27 13:03:07;;;;;;;;;;;;;;;;;;5056002;28;20029;-73
2022/02/27 13:05:33;;;;;;;8.05;4.47;;;;;;;;;;5066045;28;20384;-77
2022/02/27 13:08:04;;;;;;;9.40;4.55;;;;;;;;;;5075052;28;20044;-72
2022/02/27 13:10:30;;;;;;;13.18;4.78;;;;;;;;;;5075053;28;20046;-73
2022/02/27 13:12:58;;;;;;;12.77;4.85;;;;;;;;;;5074945;28;20392;-77
2022/02/27 13:15:24;;;;;;;14.18;5.72;;;;;;;;;;5074974;28;20028;-73